Terminal Aerodrome Forecast
Issued by NWS Cleveland, OH

Home | Current Version | Previous Version | Graphics & Text | Print | Product List | Glossary Off
Versions: 1 2 3 4 5 6 7 8 9 10 11 12 13 14 15 16 17

000
FTUS41 KCLE 230531
TAFCAK
TAF
KCAK 230531Z 2306/2406 26004KT P6SM SCT024 BKN080
     FM230900 26004KT 6SM BR BKN015 BKN025
     FM231400 26005KT P6SM SCT019 BKN035
      TEMPO 2314/2316 BKN030
     FM231600 26006KT P6SM SCT023 BKN035 PROB30 2317/2322 4SM TS
      BKN030CB
     FM232300 29006KT P6SM SCT030 BKN120
     FM240500 26004KT 5SM BR FEW035 SCT120=

USA.gov is the U.S. government's official web portal to all federal, state and local government web resources and services.